createdAt,value
2023-06-09T00:01:03.066Z,100288.88
2023-06-09T00:03:34.972Z,100289.97
2023-06-09T00:06:10.388Z,100286.81
2023-06-09T00:08:42.220Z,100246.34
2023-06-09T00:11:14.107Z,100291.41
2023-06-09T00:13:46.669Z,100275.41
2023-06-09T00:16:18.478Z,100260.03
2023-06-09T00:18:50.278Z,100245.91
2023-06-09T00:21:22.758Z,100283.88
2023-06-09T00:23:57.252Z,100283.56
2023-06-09T00:26:29.173Z,100270.78
2023-06-09T00:29:01.355Z,100246.09
2023-06-09T00:31:33.179Z,100271.34
2023-06-09T00:34:04.974Z,100245.94
2023-06-09T00:36:37.470Z,100272.31
2023-06-09T00:39:10.468Z,100271.31
2023-06-09T00:41:43.235Z,100267.72
2023-06-09T00:44:16.099Z,100258.78
2023-06-09T00:46:48.007Z,100283.97
2023-06-09T00:49:19.898Z,100270.69
2023-06-09T00:51:52.540Z,100272.19
2023-06-09T00:54:24.431Z,100292.16
2023-06-09T00:56:57.672Z,100279.88
2023-06-09T00:59:29.781Z,100279.09
2023-06-09T01:02:02.009Z,100235.00
2023-06-09T01:04:36.214Z,100283.41
2023-06-09T01:07:12.625Z,100255.88
2023-06-09T01:09:50.851Z,100281.19
2023-06-09T01:12:51.937Z,100277.91
2023-06-09T01:15:30.885Z,100275.47
2023-06-09T01:18:05.206Z,100282.34
2023-06-09T01:20:47.173Z,100282.38
2023-06-09T01:23:33.433Z,100256.25
2023-06-09T01:26:06.827Z,100257.09
2023-06-09T01:28:39.794Z,100283.47
2023-06-09T01:31:16.419Z,100263.44
2023-06-09T01:33:48.574Z,100283.06
2023-06-09T01:36:21.162Z,100256.94
2023-06-09T01:38:53.092Z,100273.59
2023-06-09T01:41:26.744Z,100273.59
2023-06-09T01:43:59.175Z,100275.53
2023-06-09T01:46:31.212Z,100231.75
2023-06-09T01:49:28.477Z,100280.19
2023-06-09T01:52:22.129Z,100235.06
2023-06-09T01:54:58.591Z,100275.66
2023-06-09T01:57:59.602Z,100271.00
2023-06-09T02:00:31.609Z,100268.34
2023-06-09T02:03:06.953Z,100250.47
2023-06-09T02:05:40.223Z,100238.50
2023-06-09T02:08:12.601Z,100234.06
2023-06-09T02:10:44.494Z,100246.19
2023-06-09T02:13:18.224Z,100249.47
2023-06-09T02:15:50.300Z,100270.53
2023-06-09T02:18:22.892Z,100248.66
2023-06-09T02:20:54.869Z,100265.97
2023-06-09T02:23:26.882Z,100246.84
2023-06-09T02:25:58.652Z,100226.50
2023-06-09T02:28:30.442Z,100277.66
2023-06-09T02:31:02.721Z,100242.56
2023-06-09T02:33:34.861Z,100225.91
2023-06-09T02:36:06.654Z,100272.38
2023-06-09T02:38:38.696Z,100259.63
2023-06-09T02:41:10.600Z,100260.31
2023-06-09T02:43:42.493Z,100243.69
2023-06-09T02:46:15.198Z,100258.09
2023-06-09T02:48:48.938Z,100258.63
2023-06-09T02:51:21.049Z,100252.69
2023-06-09T02:53:52.838Z,100267.22
2023-06-09T02:56:24.864Z,100275.38
2023-06-09T02:58:56.632Z,100228.41
2023-06-09T03:01:29.363Z,100272.97
2023-06-09T03:04:01.395Z,100221.38
2023-06-09T03:06:37.874Z,100256.13
2023-06-09T03:09:12.215Z,100267.03
2023-06-09T03:11:44.211Z,100270.44
2023-06-09T03:14:16.197Z,100272.88
2023-06-09T03:16:48.214Z,100235.72
2023-06-09T03:19:20.102Z,100257.13
2023-06-09T03:21:53.845Z,100219.47
2023-06-09T03:24:26.496Z,100285.47
2023-06-09T03:26:58.305Z,100244.69
2023-06-09T03:29:30.317Z,100244.03
2023-06-09T03:32:02.202Z,100255.38
2023-06-09T03:34:33.987Z,100259.91
2023-06-09T03:37:05.979Z,100281.94
2023-06-09T03:39:37.908Z,100283.00
2023-06-09T03:42:09.798Z,100258.81
2023-06-09T03:44:41.664Z,100258.47
2023-06-09T03:47:13.474Z,100262.75
2023-06-09T03:49:45.262Z,100280.81
2023-06-09T03:52:17.224Z,100285.75
2023-06-09T03:54:49.795Z,100247.47
2023-06-09T03:57:21.909Z,100286.47
2023-06-09T03:59:53.733Z,100297.56
2023-06-09T04:02:25.657Z,100280.53
2023-06-09T04:04:57.553Z,100285.06
2023-06-09T04:07:31.476Z,100293.28
2023-06-09T04:10:04.326Z,100309.31
2023-06-09T04:12:36.544Z,100299.91
2023-06-09T04:15:09.466Z,100308.41
2023-06-09T04:17:41.644Z,100298.66
2023-06-09T04:20:13.793Z,100300.69
2023-06-09T04:22:49.643Z,100292.97
2023-06-09T04:25:27.486Z,100285.84
2023-06-09T04:28:01.806Z,100295.53
2023-06-09T04:30:35.829Z,100256.63
2023-06-09T04:33:09.214Z,100253.50
2023-06-09T04:35:42.489Z,100301.47
2023-06-09T04:38:14.270Z,100272.66
2023-06-09T04:40:46.978Z,100297.13
2023-06-09T04:43:19.537Z,100308.69
2023-06-09T04:45:56.657Z,100285.06
2023-06-09T04:48:30.675Z,100261.53
2023-06-09T04:51:02.862Z,100270.09
2023-06-09T04:53:35.966Z,100293.69
2023-06-09T04:56:09.857Z,100276.25
2023-06-09T04:58:42.321Z,100292.19
2023-06-09T05:01:14.669Z,100262.72
2023-06-09T05:03:46.883Z,100284.88
2023-06-09T05:06:18.668Z,100306.31
2023-06-09T05:08:52.048Z,100287.63
2023-06-09T05:11:24.254Z,100289.84
2023-06-09T05:13:56.170Z,100291.63
2023-06-09T05:16:28.694Z,100303.50
2023-06-09T05:19:00.596Z,100276.31
2023-06-09T05:21:32.386Z,100295.66
2023-06-09T05:24:04.891Z,100281.97
2023-06-09T05:26:37.052Z,100247.63
2023-06-09T05:29:08.992Z,100275.41
2023-06-09T05:31:40.944Z,100252.75
2023-06-09T05:34:13.519Z,100286.19
2023-06-09T05:36:45.570Z,100281.25
2023-06-09T05:39:17.405Z,100271.94
2023-06-09T05:41:49.178Z,100291.63
2023-06-09T05:44:21.035Z,100283.03
2023-06-09T05:47:02.440Z,100281.69
2023-06-09T05:49:35.739Z,100243.56
2023-06-09T05:52:07.744Z,100269.78
2023-06-09T05:54:39.549Z,100276.34
2023-06-09T05:57:11.939Z,100274.97
2023-06-09T05:59:44.162Z,100291.00
2023-06-09T06:02:17.207Z,100290.31
2023-06-09T06:04:50.715Z,100273.38
2023-06-09T06:07:27.173Z,100279.97
2023-06-09T06:09:58.947Z,100254.00
2023-06-09T06:12:31.724Z,100274.75
2023-06-09T06:15:03.719Z,100286.13
2023-06-09T06:17:35.547Z,100260.44
2023-06-09T06:20:07.945Z,100277.09
2023-06-09T06:22:40.912Z,100276.69
2023-06-09T06:25:14.716Z,100279.03
2023-06-09T06:27:48.636Z,100286.44
2023-06-09T06:30:20.722Z,100270.31
2023-06-09T06:32:54.397Z,100298.47
2023-06-09T06:35:28.154Z,100275.28
2023-06-09T06:38:00.399Z,100290.19
2023-06-09T06:40:32.187Z,100284.13
2023-06-09T06:43:03.981Z,100260.94
2023-06-09T06:45:35.801Z,100295.72
2023-06-09T06:48:07.591Z,100261.91
2023-06-09T06:50:41.626Z,100263.81
2023-06-09T06:53:13.651Z,100285.78
2023-06-09T06:55:46.779Z,100260.44
2023-06-09T06:58:18.700Z,100266.00
2023-06-09T07:00:50.522Z,100280.50
2023-06-09T07:03:26.259Z,100273.63
2023-06-09T07:05:58.060Z,100289.31
2023-06-09T07:08:29.894Z,100252.22
2023-06-09T07:11:01.713Z,100282.03
2023-06-09T07:13:33.506Z,100279.81
2023-06-09T07:16:05.590Z,100246.03
2023-06-09T07:18:37.911Z,100271.25
2023-06-09T07:21:10.098Z,100292.41
2023-06-09T07:23:41.905Z,100275.94
2023-06-09T07:26:13.839Z,100249.56
2023-06-09T07:28:45.697Z,100262.06
2023-06-09T07:31:17.767Z,100275.97
2023-06-09T07:33:49.667Z,100239.50
2023-06-09T07:36:21.447Z,100268.78
2023-06-09T07:38:53.357Z,100259.59
2023-06-09T07:41:25.201Z,100280.84
2023-06-09T07:43:58.162Z,100281.69
2023-06-09T07:46:31.918Z,100284.28
2023-06-09T07:49:04.174Z,100278.75
2023-06-09T07:51:39.250Z,100259.91
2023-06-09T07:54:11.203Z,100277.28
2023-06-09T07:56:44.186Z,100283.19
2023-06-09T07:59:17.062Z,100270.34
2023-06-09T08:01:49.039Z,100257.69
2023-06-09T08:04:20.951Z,100252.56
2023-06-09T08:06:53.214Z,100272.25
2023-06-09T08:09:26.219Z,100271.00
2023-06-09T08:11:58.035Z,100261.72
2023-06-09T08:14:29.884Z,100261.25
2023-06-09T08:17:01.746Z,100263.94
2023-06-09T08:19:33.505Z,100254.16
2023-06-09T08:22:05.504Z,100286.97
2023-06-09T08:24:37.945Z,100241.50
2023-06-09T08:27:09.762Z,100280.91
2023-06-09T08:29:41.568Z,100240.34
2023-06-09T08:32:13.360Z,100252.00
2023-06-09T08:34:45.164Z,100255.53
2023-06-09T08:37:16.921Z,100260.25
2023-06-09T08:39:49.092Z,100240.72
2023-06-09T08:42:27.127Z,100245.00
2023-06-09T08:45:08.653Z,100266.41
2023-06-09T08:47:45.934Z,100262.13
2023-06-09T08:50:26.044Z,100232.88
2023-06-09T08:52:58.142Z,100254.44
2023-06-09T08:55:30.464Z,100257.69
2023-06-09T08:58:02.568Z,100259.59
2023-06-09T09:00:34.406Z,100239.59
2023-06-09T09:03:07.476Z,100248.78
2023-06-09T09:05:39.644Z,100250.41
2023-06-09T09:08:12.675Z,100273.41
2023-06-09T09:10:46.994Z,100252.06
2023-06-09T09:13:19.586Z,100264.06
2023-06-09T09:15:52.704Z,100246.81
2023-06-09T09:18:24.606Z,100253.75
2023-06-09T09:20:56.635Z,100243.63
2023-06-09T09:23:34.851Z,100252.06
2023-06-09T09:26:06.799Z,100252.06
2023-06-09T09:28:40.845Z,100253.78
2023-06-09T09:31:12.799Z,100222.72
2023-06-09T09:33:51.175Z,100247.91
2023-06-09T09:36:23.000Z,100251.63
2023-06-09T09:39:02.389Z,100252.13
2023-06-09T09:41:34.197Z,100250.94
2023-06-09T09:44:07.442Z,100228.13
2023-06-09T09:46:40.929Z,100254.88
2023-06-09T09:49:23.149Z,100251.34
2023-06-09T09:51:58.365Z,100239.97
2023-06-09T09:54:30.896Z,100221.19
2023-06-09T09:57:04.028Z,100211.69
2023-06-09T09:59:36.022Z,100218.66
2023-06-09T10:02:17.951Z,100226.78
2023-06-09T10:04:51.051Z,100225.53
2023-06-09T10:07:23.223Z,100211.00
2023-06-09T10:09:55.772Z,100222.84
2023-06-09T10:12:28.316Z,100213.31
2023-06-09T10:15:00.215Z,100216.44
2023-06-09T10:17:33.388Z,100210.63
2023-06-09T10:20:06.928Z,100225.88
2023-06-09T10:22:39.289Z,100186.94
2023-06-09T10:25:13.552Z,100227.59
2023-06-09T10:27:46.706Z,100203.94
2023-06-09T10:30:22.191Z,100193.84
2023-06-09T10:33:12.128Z,100218.00
2023-06-09T10:35:47.776Z,100212.06
2023-06-09T10:38:29.813Z,100205.41
2023-06-09T10:41:40.733Z,100204.13
2023-06-09T10:44:42.498Z,100195.91
2023-06-09T10:47:44.386Z,100186.47
2023-06-09T10:50:26.377Z,100194.13
2023-06-09T10:53:00.154Z,100180.06
2023-06-09T10:55:36.272Z,100182.84
2023-06-09T10:58:36.579Z,100183.69
2023-06-09T11:01:08.940Z,100173.84
2023-06-09T11:03:40.982Z,100179.84
2023-06-09T11:06:12.804Z,100184.84
2023-06-09T11:09:10.342Z,100190.06
2023-06-09T11:11:50.618Z,100198.09
2023-06-09T11:14:52.610Z,100192.38
2023-06-09T11:17:35.563Z,100197.41
2023-06-09T11:20:07.777Z,100200.69
2023-06-09T11:22:42.910Z,100191.44
2023-06-09T11:25:20.955Z,100191.06
2023-06-09T11:27:58.682Z,100196.63
2023-06-09T11:30:32.003Z,100200.16
2023-06-09T11:33:05.912Z,100164.63
2023-06-09T11:35:42.039Z,100190.22
2023-06-09T11:38:21.122Z,100195.75
2023-06-09T11:40:53.814Z,100166.19
2023-06-09T11:43:27.048Z,100182.84
2023-06-09T11:46:05.068Z,100177.97
2023-06-09T11:48:36.922Z,100189.81
2023-06-09T11:51:08.690Z,100213.22
2023-06-09T11:53:48.758Z,100178.91
2023-06-09T11:56:21.327Z,100188.69
2023-06-09T11:58:56.704Z,100200.13
2023-06-09T12:01:32.697Z,100198.09
2023-06-09T12:04:05.931Z,100239.28
2023-06-09T12:06:38.775Z,100201.16
2023-06-09T12:09:21.479Z,100216.06
2023-06-09T12:11:54.465Z,100217.38
2023-06-09T12:14:26.761Z,100214.47
2023-06-09T12:16:58.659Z,100211.75
2023-06-09T12:19:31.167Z,100205.13
2023-06-09T12:22:04.345Z,100194.22
2023-06-09T12:24:36.311Z,100214.97
2023-06-09T12:27:15.168Z,100192.94
2023-06-09T12:29:47.274Z,100194.56
2023-06-09T12:32:24.957Z,100222.41
2023-06-09T12:35:01.900Z,100195.16
2023-06-09T12:37:39.644Z,100233.22
2023-06-09T12:40:13.086Z,100213.81
2023-06-09T12:42:49.197Z,100200.56
2023-06-09T12:45:22.454Z,100215.97
2023-06-09T12:47:54.392Z,100196.63
2023-06-09T12:50:26.242Z,100196.56
2023-06-09T12:52:57.996Z,100220.59
2023-06-09T12:55:29.769Z,100215.84
2023-06-09T12:58:01.740Z,100217.94
2023-06-09T13:00:34.082Z,100188.66
2023-06-09T13:03:09.829Z,100194.69
2023-06-09T13:05:41.931Z,100187.81
2023-06-09T13:08:13.753Z,100186.25
2023-06-09T13:10:45.675Z,100200.34
2023-06-09T13:13:17.450Z,100163.16
2023-06-09T13:15:49.323Z,100189.50
2023-06-09T13:18:21.090Z,100180.53
2023-06-09T13:20:53.370Z,100150.94
2023-06-09T13:23:25.169Z,100157.25
2023-06-09T13:25:56.952Z,100185.22
2023-06-09T13:28:28.824Z,100156.44
2023-06-09T13:31:01.451Z,100163.97
2023-06-09T13:33:33.309Z,100140.91
2023-06-09T13:36:05.253Z,100120.88
2023-06-09T13:38:39.055Z,100160.31
2023-06-09T13:41:14.794Z,100143.78
2023-06-09T13:43:47.654Z,100152.91
2023-06-09T13:46:19.789Z,100134.84
2023-06-09T13:48:51.848Z,100145.50
2023-06-09T13:51:23.724Z,100129.75
2023-06-09T13:53:55.496Z,100150.63
2023-06-09T13:56:27.486Z,100127.66
2023-06-09T13:58:59.390Z,100140.72
2023-06-09T14:01:34.001Z,100135.00
2023-06-09T14:04:06.155Z,100124.13
2023-06-09T14:06:39.421Z,100157.03
2023-06-09T14:09:13.466Z,100133.91
2023-06-09T14:11:45.254Z,100128.03
2023-06-09T14:14:18.072Z,100142.31
2023-06-09T14:16:50.042Z,100158.88
2023-06-09T14:19:22.709Z,100131.31
2023-06-09T14:21:54.620Z,100157.03
2023-06-09T14:24:26.698Z,100134.16
2023-06-09T14:26:59.621Z,100138.44
2023-06-09T14:29:33.502Z,100123.34
2023-06-09T14:32:06.171Z,100134.31
2023-06-09T14:34:38.075Z,100132.72
2023-06-09T14:37:09.880Z,100115.13
2023-06-09T14:39:41.655Z,100111.72
2023-06-09T14:42:13.494Z,100141.94
2023-06-09T14:44:45.314Z,100106.16
2023-06-09T14:47:17.131Z,100104.38
2023-06-09T14:49:48.999Z,100124.13
2023-06-09T14:52:20.964Z,100123.25
2023-06-09T14:54:55.051Z,100098.59
2023-06-09T14:57:26.893Z,100106.25
2023-06-09T14:59:58.718Z,100134.28
2023-06-09T15:02:30.612Z,100113.53
2023-06-09T15:05:04.712Z,100118.16
2023-06-09T15:07:36.701Z,100119.84
2023-06-09T15:10:08.787Z,100124.72
2023-06-09T15:12:40.588Z,100081.06
2023-06-09T15:15:13.478Z,100145.75
2023-06-09T15:17:45.569Z,100133.94
2023-06-09T15:20:18.180Z,100142.53
2023-06-09T15:22:50.032Z,100122.97
2023-06-09T15:25:28.643Z,100102.97
2023-06-09T15:28:02.368Z,100137.06
2023-06-09T15:30:35.781Z,100122.97
2023-06-09T15:33:09.987Z,100117.44
2023-06-09T15:35:53.317Z,100123.59
2023-06-09T15:38:26.488Z,100093.13
2023-06-09T15:40:59.198Z,100110.50
2023-06-09T15:43:38.303Z,100135.16
2023-06-09T15:46:10.157Z,100086.19
2023-06-09T15:48:42.021Z,100088.00
2023-06-09T15:51:13.893Z,100122.91
2023-06-09T15:53:45.761Z,100103.72
2023-06-09T15:56:17.580Z,100096.59
2023-06-09T15:58:49.439Z,100121.91
2023-06-09T16:01:21.507Z,100074.53
2023-06-09T16:03:53.638Z,100136.03
2023-06-09T16:06:25.698Z,100131.13
2023-06-09T16:09:04.345Z,100116.22
2023-06-09T16:11:39.161Z,100120.09
2023-06-09T16:14:13.434Z,100128.06
2023-06-09T16:16:46.650Z,100134.16
2023-06-09T16:22:04.338Z,100131.06
2023-06-09T16:24:36.560Z,100087.31
2023-06-09T16:27:09.593Z,100115.53
2023-06-09T16:29:43.873Z,100125.53
2023-06-09T16:32:15.694Z,100109.13
2023-06-09T16:34:49.975Z,100131.81
2023-06-09T16:37:22.188Z,100146.28
2023-06-09T16:39:54.605Z,100135.47
2023-06-09T16:42:26.402Z,100134.88
2023-06-09T16:45:03.061Z,100142.38
2023-06-09T16:47:39.142Z,100137.81
2023-06-09T16:50:11.964Z,100136.94
2023-06-09T16:52:43.884Z,100158.59
2023-06-09T16:55:16.905Z,100143.06
2023-06-09T16:57:49.032Z,100142.22
2023-06-09T17:00:23.560Z,100153.28
2023-06-09T17:02:56.731Z,100126.56
2023-06-09T17:05:30.845Z,100149.00
2023-06-09T17:08:05.299Z,100122.41
2023-06-09T17:10:37.602Z,100132.44
2023-06-09T17:13:10.163Z,100146.56
2023-06-09T17:15:41.981Z,100108.47
2023-06-09T17:18:14.399Z,100150.25
2023-06-09T17:20:47.588Z,100148.03
2023-06-09T17:23:21.643Z,100128.41
2023-06-09T17:25:53.435Z,100164.31
2023-06-09T17:28:25.283Z,100163.38
2023-06-09T17:30:57.594Z,100121.38
2023-06-09T17:33:34.341Z,100145.84
2023-06-09T17:36:06.510Z,100173.41
2023-06-09T17:38:38.729Z,100182.00
2023-06-09T17:41:10.777Z,100147.38
2023-06-09T17:43:42.909Z,100149.88
2023-06-09T17:46:15.041Z,100158.25
2023-06-09T17:48:46.892Z,100147.34
2023-06-09T17:51:20.557Z,100151.31
2023-06-09T17:53:54.602Z,100168.06
2023-06-09T17:56:28.058Z,100160.13
2023-06-09T17:59:04.749Z,100130.25
2023-06-09T18:01:37.406Z,100153.91
2023-06-09T18:04:10.076Z,100099.81
2023-06-09T18:06:46.952Z,100150.19
2023-06-09T18:09:19.126Z,100151.25
2023-06-09T18:11:51.816Z,100140.16
2023-06-09T18:14:23.692Z,100136.97
2023-06-09T18:16:55.511Z,100153.84
2023-06-09T18:19:27.568Z,100153.44
2023-06-09T18:21:59.391Z,100114.56
2023-06-09T18:24:33.053Z,100149.97
2023-06-09T18:27:05.134Z,100131.59
2023-06-09T18:29:37.006Z,100131.22
2023-06-09T18:32:10.376Z,100150.06
2023-06-09T18:34:42.427Z,100169.84
2023-06-09T18:37:14.251Z,100183.84
2023-06-09T18:39:46.403Z,100182.97
2023-06-09T18:42:18.823Z,100161.94
2023-06-09T18:44:50.705Z,100175.50
2023-06-09T18:47:23.967Z,100182.78
2023-06-09T18:49:55.966Z,100141.28
2023-06-09T18:52:32.067Z,100154.56
2023-06-09T18:55:04.183Z,100174.41
2023-06-09T18:57:38.485Z,100189.78
2023-06-09T19:00:12.482Z,100203.47
2023-06-09T19:02:45.814Z,100180.59
2023-06-09T19:05:19.505Z,100209.47
2023-06-09T19:07:51.363Z,100188.97
2023-06-09T19:10:25.741Z,100204.28
2023-06-09T19:12:57.544Z,100200.19
2023-06-09T19:15:29.403Z,100206.28
2023-06-09T19:18:01.989Z,100207.91
2023-06-09T19:20:37.124Z,100190.88
2023-06-09T19:23:09.244Z,100203.66
2023-06-09T19:25:41.232Z,100208.66
2023-06-09T19:28:13.094Z,100213.84
2023-06-09T19:30:45.074Z,100225.06
2023-06-09T19:33:17.469Z,100219.91
2023-06-09T19:35:49.267Z,100220.03
2023-06-09T19:38:21.336Z,100193.09
2023-06-09T19:40:55.431Z,100236.06
2023-06-09T19:43:28.818Z,100224.53
2023-06-09T19:46:01.642Z,100231.94
2023-06-09T19:48:34.351Z,100204.56
2023-06-09T19:51:06.266Z,100231.97
2023-06-09T19:53:38.083Z,100205.09
2023-06-09T19:56:12.814Z,100220.66
2023-06-09T19:58:44.629Z,100232.41
2023-06-09T20:01:16.495Z,100212.03
2023-06-09T20:03:48.301Z,100201.81
2023-06-09T20:06:20.659Z,100177.09
2023-06-09T20:08:52.457Z,100200.28
2023-06-09T20:11:25.235Z,100196.47
2023-06-09T20:13:57.165Z,100218.56
2023-06-09T20:16:34.503Z,100219.63
2023-06-09T20:19:08.019Z,100218.78
2023-06-09T20:21:39.866Z,100211.13
2023-06-09T20:24:12.026Z,100203.84
2023-06-09T20:26:45.295Z,100219.06
2023-06-09T20:29:18.602Z,100214.94
2023-06-09T20:31:50.547Z,100222.41
2023-06-09T20:34:22.622Z,100230.78
2023-06-09T20:36:54.823Z,100241.34
2023-06-09T20:39:26.719Z,100209.81
2023-06-09T20:41:58.490Z,100243.44
2023-06-09T20:44:30.426Z,100243.16
2023-06-09T20:47:03.882Z,100223.34
2023-06-09T20:49:39.836Z,100239.94
2023-06-09T20:52:12.550Z,100248.56
2023-06-09T20:54:44.668Z,100219.31
2023-06-09T20:57:16.761Z,100223.03
2023-06-09T20:59:48.568Z,100235.25
2023-06-09T21:02:21.395Z,100216.59
2023-06-09T21:04:53.267Z,100233.00
2023-06-09T21:07:25.066Z,100249.69
2023-06-09T21:09:56.850Z,100225.34
2023-06-09T21:12:28.651Z,100257.88
2023-06-09T21:15:00.478Z,100225.09
2023-06-09T21:17:32.721Z,100261.41
2023-06-09T21:20:13.401Z,100250.69
2023-06-09T21:22:45.452Z,100264.22
2023-06-09T21:25:17.648Z,100214.47
2023-06-09T21:27:49.462Z,100216.53
2023-06-09T21:30:22.092Z,100225.09
2023-06-09T21:32:54.390Z,100255.81
2023-06-09T21:35:26.647Z,100212.31
2023-06-09T21:37:58.598Z,100256.81
2023-06-09T21:40:30.701Z,100223.03
2023-06-09T21:43:02.906Z,100227.31
2023-06-09T21:45:35.233Z,100244.72
2023-06-09T21:48:07.179Z,100217.66
2023-06-09T21:50:38.994Z,100231.78
2023-06-09T21:53:11.744Z,100249.19
2023-06-09T21:55:45.620Z,100248.84
2023-06-09T21:58:17.537Z,100220.53
2023-06-09T22:00:49.485Z,100239.16
2023-06-09T22:03:21.378Z,100240.91
2023-06-09T22:05:53.175Z,100219.59
2023-06-09T22:08:25.247Z,100228.50
2023-06-09T22:10:58.589Z,100233.09
2023-06-09T22:13:31.636Z,100244.31
2023-06-09T22:16:03.874Z,100240.19
2023-06-09T22:18:35.871Z,100221.84
2023-06-09T22:21:08.148Z,100257.78
2023-06-09T22:23:40.382Z,100264.22
2023-06-09T22:26:12.532Z,100244.69
2023-06-09T22:28:44.612Z,100203.94
2023-06-09T22:31:16.877Z,100247.56
2023-06-09T22:33:48.708Z,100236.19
2023-06-09T22:36:24.377Z,100265.25
2023-06-09T22:38:56.837Z,100246.06
2023-06-09T22:41:28.648Z,100240.28
2023-06-09T22:44:02.409Z,100255.09
2023-06-09T22:46:35.146Z,100262.81
2023-06-09T22:49:07.652Z,100232.91
2023-06-09T22:51:39.421Z,100222.69
2023-06-09T22:54:11.369Z,100248.00
2023-06-09T22:56:44.795Z,100224.31
2023-06-09T22:59:16.971Z,100220.41
2023-06-09T23:01:48.791Z,100244.38
2023-06-09T23:04:20.813Z,100229.25
2023-06-09T23:06:53.054Z,100242.38
2023-06-09T23:09:24.922Z,100244.31
2023-06-09T23:11:59.187Z,100204.41
2023-06-09T23:14:31.211Z,100232.63
2023-06-09T23:17:03.432Z,100249.53
2023-06-09T23:19:35.865Z,100251.16
2023-06-09T23:22:14.499Z,100231.13
2023-06-09T23:24:46.503Z,100243.25
2023-06-09T23:27:18.294Z,100246.88
2023-06-09T23:29:51.153Z,100209.63
2023-06-09T23:32:23.131Z,100211.72
2023-06-09T23:34:55.161Z,100254.13
2023-06-09T23:37:29.425Z,100245.22
2023-06-09T23:40:01.313Z,100251.59
2023-06-09T23:42:33.132Z,100243.25
2023-06-09T23:45:05.407Z,100244.44
2023-06-09T23:47:37.672Z,100226.84
2023-06-09T23:50:11.258Z,100244.25
2023-06-09T23:52:43.193Z,100220.59
2023-06-09T23:55:15.057Z,100236.25
2023-06-09T23:57:46.871Z,100248.91
